x

La Perouse Bank (46206) Wave Buoy

10:00pm - Tue 31st Mar 2015 All times are PDT. -7 hours from GMT.

  • Sig Wave height 8.2ft
  • Peak Period 9s
  • Wind
    13mph, 16mph gusts
  • Sea Temp 51°f
  • 空気 Temp 49°f
  • Sea Pressure 1022.1mb
  • La Perouse Bank
  • La Perouse Bank

More Historic Weather Station data

Upgrade to MSW Pro to gain access to the past 30 days of data for over 8000 Wavebouys and Weather Stations around the globe.

Join Pro

Comparision Forecast

View Surf forecast
   
Tue 03/31 10:00pm 8ft 9s 13 16 mph 1022.1mb 51f 49f
9:00pm 9.5ft 11s 13 18 mph 1021.8mb 51f 49f
8:00pm 9.5ft 12s 9 13 mph 1021.6mb 51f 48f
7:00pm 9.5ft 14s 9 13 mph 1021.3mb 51f 48f
6:00pm 9ft 11s 4 9 mph 1021.3mb 51f 48f
5:00pm 8.5ft 12s 7 9 mph 1021.1mb 51f 49f
3:00pm 8.5ft 12s 11 16 mph 1020.6mb 52f 47f
2:00pm 8.5ft 10s 11 16 mph 1020mb 52f 48f
1:00pm 8ft 11s 9 11 mph 1019.9mb 52f 46f
12:00pm 8ft 10s 7 9 mph 1019.1mb 52f 47f
11:00am 8ft 12s 7 9 mph 1018.4mb 52f 47f
10:00am 9ft 10s 9 13 mph 1017.7mb 51f 47f
9:00am 9ft 11s 9 11 mph 1016.9mb 51f 47f
8:00am 9.5ft 10s 11 13 mph 1016.2mb 51f 49f
7:00am 10.5ft 12s 20 27 mph 1015.8mb 51f 49f
6:00am 11.5ft 12s 18 22 mph 1015mb 51f 49f
5:00am 11ft 11s 18 22 mph 1014.6mb 51f 49f
4:00am 10.5ft 12s 20 25 mph 1013.9mb 51f 49f
3:00am 10ft 11s 20 25 mph 1013.4mb 51f 49f
2:00am 10ft 11s 13 25 mph 1013.2mb 51f 47f
1:00am 10ft 11s 13 18 mph 1012.3mb 51f 49f
12:00am 9ft 11s 13 18 mph 1011.9mb 51f 49f
Mon 03/30 11:00pm 9ft 12s 11 16 mph 1011.5mb 51f 48f
10:00pm 8.5ft 12s 7 11 mph 1011.6mb 51f 48f
9:00pm 9ft 10s 7 9 mph 1011.4mb 51f 48f
8:00pm 9.5ft 10s 16 22 mph 1011.3mb 51f 48f
7:00pm 9.5ft 14s 9 13 mph 1011.4mb 51f 49f
6:00pm 11ft 12s 9 11 mph 1011.9mb 51f 48f
5:00pm 10.5ft 12s 11 16 mph 1012mb 52f 49f
4:00pm 12ft 12s 16 20 mph 1012.1mb 52f 49f
3:00pm 12ft 11s 11 18 mph 1012.6mb 52f 50f
2:00pm 12ft 14s 25 31 mph 1012.3mb 51f 50f
1:00pm 11ft 12s 25 31 mph 1012.9mb 51f 51f
12:00pm 11ft 12s 25 31 mph 1013.5mb 52f 52f
11:00am 11ft 13s 22 27 mph 1014mb 52f 52f
10:00am 10ft 13s 22 27 mph 1014.3mb 52f 52f
9:00am 11ft 13s 20 25 mph 1014.5mb 51f 52f
8:00am 10.5ft 11s 20 25 mph 1014.7mb 51f 52f
7:00am 10.5ft 12s 18 22 mph 1014.8mb 51f 52f
6:00am 9.5ft 13s 18 22 mph 1014.8mb 51f 52f
5:00am 10ft 12s 18 22 mph 1015.4mb 51f 52f
4:00am 10ft 14s 18 22 mph 1016.2mb 51f 52f
3:00am 9ft 12s 18 20 mph 1016.5mb 51f 52f
2:00am 9ft 13s 16 18 mph 1016.8mb 51f 52f
1:00am 9ft 12s 13 18 mph 1017.2mb 51f 52f
12:00am 9ft 12s 18 25 mph 1017.4mb 51f 51f
Sun 03/29 11:00pm 9.5ft 12s 16 22 mph 1018mb 51f 51f
10:00pm 10ft 12s 16 20 mph 1018.5mb 52f 51f
9:00pm 10ft 11s 11 16 mph 1019.2mb 51f 51f
8:00pm 11ft 11s 11 16 mph 1019.7mb 51f 51f
7:00pm 10.5ft 12s 9 13 mph 1019.9mb 52f 51f
6:00pm 11ft 11s 9 11 mph 1020.5mb 52f 51f
5:00pm 11.5ft 11s 7 9 mph 1021.2mb 52f 52f
4:00pm 11.5ft 11s 4 9 mph 1021.7mb 52f 52f
3:00pm 10ft 12s 4 7 mph 1022mb 52f 52f
2:00pm 11.5ft 12s 4 7 mph 1022.2mb 52f 52f
1:00pm 11.5ft 11s 7 9 mph 1022.2mb 52f 52f
12:00pm 11ft 10s 7 9 mph 1022.2mb 52f 51f
11:00am 10.5ft 12s 7 9 mph 1021.8mb 51f 51f
10:00am 11ft 11s 4 9 mph 1021.2mb 51f 51f
9:00am 13ft 12s 11 13 mph 1020.6mb 51f 51f
8:00am 12ft 12s 11 16 mph 1020mb 51f 51f
7:00am 12.5ft 12s 13 18 mph 1019.2mb 51f 51f
6:00am 14ft 11s 22 36 mph 1018.2mb 51f 52f
4:00am 13ft 11s 25 29 mph 1018.6mb 51f 53f
3:00am 14ft 11s 27 31 mph 1019.2mb 51f 52f
2:00am 13.5ft 10s 25 31 mph 1019.6mb 51f 52f
1:00am 12.5ft 10s 25 29 mph 1020.2mb 51f 52f
12:00am 12ft 11s 27 31 mph 1020.6mb 51f 52f
Sat 03/28 11:00pm 11.5ft 9s 27 31 mph 1020.9mb 51f 52f
10:00pm 11ft 8s 25 29 mph 1021.1mb 51f 51f
9:00pm 10ft 6s 27 31 mph 1021.2mb 51f 51f
8:00pm 9ft 11s 27 31 mph 1021.3mb 51f 51f
7:00pm 9ft 10s 27 36 mph 1021.4mb 51f 51f
6:00pm 8.5ft 8s 27 31 mph 1022mb 51f 51f
5:00pm 8ft 10s 27 31 mph 1022.4mb 51f 51f
4:00pm 8ft 12s 27 31 mph 1023.4mb 51f 50f
3:00pm 8.5ft 10s 29 34 mph 1023.7mb 51f 49f
2:00pm 8.5ft 11s 25 29 mph 1024.2mb 51f 49f
1:00pm 9ft 11s 22 27 mph 1024.9mb 51f 49f
12:00pm 9ft 10s 16 20 mph 1024.8mb 51f 49f
11:00am 8ft 11s 11 16 mph 1024mb 51f 51f
10:00am 8.5ft 11s 9 11 mph 1024mb 51f 51f
9:00am 8.5ft 11s 9 13 mph 1023.5mb 51f 49f
8:00am 8.5ft 12s 4
mph
1023mb 51f 50f
7:00am 9.5ft 11s 9 13 mph 1022.4mb 51f 51f